Aérodrome :
LOGIN :

S'inscrire | Disclaimer

   EN    FR    IT 

 










Légende :    VFR   VFR Marginal   IFR   IFR Intensif   IFR Très Intensif
Visi : 
Plafond : 
>= 8 km
>= 3000ft
5 à 8 km
1000 à 3000 ft
1500m à 5 km
500 à 1000 ft
800 à 1500m
200 à 500 ft
< 800m
< 200 ft
Symboles :   Orages  Brouillard  Fortes neiges  Fortes précipitations  Vent > 20 kt
SIGMETs :   Divers  Orages  Givrage  Turbulence  Onde Orograph.  Cendres Volcan.






- Altitude de l'aérodrome : 989 ft
- Code IATA : TRN


LIMF - Torino Caselle

DERNIER METAR :
  • 190520Z 28005KT 7000 RA OVC030 05/05 Q1014

METARs EXPIRÉS :
  • 190450Z 28003KT 9999 -RA BKN035 05/05 Q1014
  • 190420Z 28004KT 9999 -RA OVC035 05/05 Q1014
  • 190350Z 27004KT 250V310 9999 -RA BKN035 05/05 Q1014 RERA
  • 190320Z 35004KT 9999 RA OVC035 06/04 Q1014
  • 190250Z 31004KT 8000 RA OVC035 06/04 Q1014

TAF TAF LIMF
Valide du 19 à 06h jusqu'au 20 à 06h UTC


190500Z 1906/2006 30006KT 5000 RA BKN025 BKN050



MET'MAP, la Météo Aéronautique d'un coup d'oeil ! - Copyright ORBIFLY Décembre 2007 - Disclaimer

ORBIFLY MET'MAP TEAM :

Programmation & Développement : Alexandra Zaïnal
Conception & Développement : Baudouin d'Aumeries
Co-Programmation & Développement : Marc-Olivier Méhu
Soutien technique & logistique : Manuel Goepfert

Contact : metmap@orbifly.com




SOURCES & CREDITS :

   NOAA